Time;durP1;ratioP1;P1;durP2;ratioP2;P2;SDS_P1;SDS_P2;PMS_P1;PMS_P2;Temp;Humidity;BMP_temperature;BMP_pressure;BME280_temperature;BME280_humidity;BME280_pressure;Samples;Min_cycle;Max_cycle;Signal;HPM_P1;HPM_P2
2022/06/23 00:00:18;;;;;;;0.50;0.50;;;21.80;60.00;;;;;;5024877;28;43873;-62
2022/06/23 00:02:45;;;;;;;0.40;0.40;;;21.80;60.00;;;;;;5019089;28;43992;-62
2022/06/23 00:05:18;;;;;;;0.50;0.47;;;21.70;59.90;;;;;;5024799;28;43383;-62
2022/06/23 00:07:54;;;;;;;0.50;0.50;;;21.70;60.00;;;;;;5024991;28;43469;-61
2022/06/23 00:10:28;;;;;;;0.60;0.60;;;21.70;60.00;;;;;;5021277;28;45186;-62
2022/06/23 00:12:55;;;;;;;0.60;0.60;;;21.70;60.00;;;;;;5022647;28;43506;-62
2022/06/23 00:15:35;;;;;;;0.50;0.50;;;21.70;60.00;;;;;;5025694;28;43390;-62
2022/06/23 00:18:05;;;;;;;0.50;0.50;;;21.70;60.00;;;;;;5021689;28;43559;-62
2022/06/23 00:20:48;;;;;;;0.60;0.60;;;21.70;60.00;;;;;;5024338;28;44034;-62
2022/06/23 00:23:24;;;;;;;0.30;0.30;;;21.70;60.00;;;;;;5024593;28;44066;-62
2022/06/23 00:25:59;;;;;;;0.57;0.57;;;21.70;60.00;;;;;;5023919;28;43424;-61
2022/06/23 00:28:53;;;;;;;0.80;0.80;;;21.70;60.00;;;;;;5016785;28;43469;-62
2022/06/23 00:31:32;;;;;;;0.50;0.50;;;21.70;60.00;;;;;;5018195;28;44790;-62
2022/06/23 00:34:03;;;;;;;0.50;0.50;;;21.60;59.90;;;;;;5023379;28;44046;-62
2022/06/23 00:36:41;;;;;;;0.47;0.47;;;21.60;60.00;;;;;;5024513;28;43548;-62
2022/06/23 00:39:29;;;;;;;0.50;0.50;;;21.60;60.00;;;;;;5024437;28;44058;-62
2022/06/23 00:41:56;;;;;;;0.47;0.47;;;21.60;60.00;;;;;;5022854;28;44673;-62
2022/06/23 00:44:33;;;;;;;0.50;0.50;;;21.60;60.00;;;;;;5024162;28;43970;-62
2022/06/23 00:47:07;;;;;;;0.60;0.60;;;21.60;60.00;;;;;;5024490;28;43448;-62
2022/06/23 00:50:02;;;;;;;0.40;0.40;;;21.60;60.00;;;;;;5023438;28;43505;-61
2022/06/23 00:52:47;;;;;;;0.55;0.55;;;21.60;59.90;;;;;;5014919;28;44680;-62
2022/06/23 00:55:39;;;;;;;0.57;0.50;;;21.60;60.00;;;;;;5024490;28;43598;-62
2022/06/23 00:58:30;;;;;;;0.57;0.57;;;21.60;60.00;;;;;;5018915;28;43418;-62
2022/06/23 01:01:24;;;;;;;0.40;0.40;;;21.60;60.00;;;;;;5024188;28;43507;-62
2022/06/23 01:03:51;;;;;;;0.93;0.50;;;21.50;59.90;;;;;;5003727;28;44100;-62
2022/06/23 01:06:27;;;;;;;0.40;0.40;;;21.50;59.90;;;;;;5024050;28;43708;-61
2022/06/23 01:09:02;;;;;;;0.52;0.52;;;21.50;59.90;;;;;;5024277;28;43981;-62
2022/06/23 01:11:47;;;;;;;0.63;0.63;;;21.60;59.90;;;;;;5023565;28;43553;-63
2022/06/23 01:14:36;;;;;;;0.50;0.50;;;21.50;59.80;;;;;;5039127;28;43990;-62
2022/06/23 01:17:17;;;;;;;0.50;0.50;;;21.50;59.80;;;;;;5022887;28;43966;-62
2022/06/23 01:20:15;;;;;;;0.50;0.50;;;21.50;59.80;;;;;;5011557;28;43361;-62
2022/06/23 01:22:49;;;;;;;0.38;0.38;;;21.50;59.80;;;;;;5005789;28;43738;-62
2022/06/23 01:25:54;;;;;;;0.70;0.70;;;21.50;59.80;;;;;;5023438;28;44027;-62
2022/06/23 01:28:25;;;;;;;0.60;0.60;;;21.50;59.80;;;;;;5017455;28;43504;-62
2022/06/23 01:31:14;;;;;;;0.60;0.60;;;21.50;59.80;;;;;;5022916;28;43503;-62
2022/06/23 01:33:55;;;;;;;0.40;0.40;;;21.50;59.80;;;;;;5023570;28;43481;-62
2022/06/23 01:36:30;;;;;;;0.70;0.70;;;21.50;59.80;;;;;;5023564;28;43812;-61
2022/06/23 01:39:21;;;;;;;0.50;0.50;;;21.50;59.90;;;;;;5022371;28;43928;-62
2022/06/23 01:41:56;;;;;;;0.47;0.47;;;21.50;59.80;;;;;;5023354;28;43559;-62
2022/06/23 01:44:51;;;;;;;0.50;0.50;;;21.40;59.70;;;;;;5023346;28;43535;-62
2022/06/23 01:47:37;;;;;;;0.50;0.50;;;21.40;59.70;;;;;;5012135;28;44060;-62
2022/06/23 01:50:13;;;;;;;0.50;0.50;;;21.40;59.70;;;;;;5022989;28;43452;-62
2022/06/23 01:52:49;;;;;;;0.60;0.60;;;21.40;59.70;;;;;;5023564;28;43431;-62
2022/06/23 01:55:24;;;;;;;0.50;0.50;;;21.40;59.70;;;;;;5019721;28;43552;-62
2022/06/23 01:58:02;;;;;;;0.50;0.50;;;21.40;59.70;;;;;;5022628;28;45002;-62
2022/06/23 02:00:30;;;;;;;0.75;0.70;;;21.40;59.70;;;;;;5021779;28;43720;-62
2022/06/23 02:03:22;;;;;;;0.50;0.50;;;21.40;59.70;;;;;;5023181;28;43443;-62
2022/06/23 02:05:56;;;;;;;0.50;0.50;;;21.40;59.70;;;;;;5023347;28;43542;-62
2022/06/23 02:08:47;;;;;;;0.40;0.40;;;21.40;59.70;;;;;;5021971;28;44902;-62
2022/06/23 02:11:17;;;;;;;0.90;0.90;;;21.40;59.70;;;;;;5022806;28;43477;-62
2022/06/23 02:13:51;;;;;;;0.40;0.40;;;21.30;59.70;;;;;;5023617;28;43407;-62
2022/06/23 02:16:48;;;;;;;0.50;0.50;;;21.40;59.70;;;;;;5006196;28;43501;-62
2022/06/23 02:19:34;;;;;;;0.52;0.52;;;21.40;59.80;;;;;;5023104;28;44990;-62
2022/06/23 02:22:19;;;;;;;0.50;0.50;;;21.30;59.70;;;;;;5015580;28;44290;-62
2022/06/23 02:24:53;;;;;;;0.63;0.63;;;21.30;59.70;;;;;;5011689;28;43468;-62
2022/06/23 02:27:39;;;;;;;0.57;0.57;;;21.30;59.70;;;;;;5023584;28;43462;-62
2022/06/23 02:30:31;;;;;;;0.50;0.50;;;21.30;59.70;;;;;;5022683;28;43890;-62
2022/06/23 02:33:13;;;;;;;0.40;0.40;;;21.30;59.80;;;;;;5014565;28;43684;-62
2022/06/23 02:35:52;;;;;;;0.63;0.63;;;21.30;59.70;;;;;;5022114;28;43537;-62
2022/06/23 02:38:45;;;;;;;0.57;0.57;;;21.30;59.80;;;;;;5022264;28;43529;-62
2022/06/23 02:41:20;;;;;;;0.45;0.45;;;21.30;59.80;;;;;;5022480;28;44245;-62
2022/06/23 02:43:53;;;;;;;0.47;0.47;;;21.30;59.80;;;;;;5021812;28;43944;-62
2022/06/23 02:46:43;;;;;;;0.60;0.60;;;21.30;59.80;;;;;;5038565;28;43435;-61
2022/06/23 02:49:29;;;;;;;1.05;0.50;;;21.30;59.80;;;;;;5017465;28;43516;-62
2022/06/23 02:52:32;;;;;;;0.60;0.60;;;21.30;59.80;;;;;;5021930;28;43810;-61
2022/06/23 02:55:19;;;;;;;0.70;0.50;;;21.20;59.70;;;;;;5022436;28;43701;-62
2022/06/23 02:58:03;;;;;;;0.57;0.57;;;21.20;59.80;;;;;;5015111;28;43484;-62
2022/06/23 03:01:04;;;;;;;0.57;0.50;;;21.20;59.80;;;;;;5022691;28;43377;-62
2022/06/23 03:03:51;;;;;;;0.50;0.50;;;21.20;59.80;;;;;;5021030;28;44658;-62
2022/06/23 03:06:27;;;;;;;0.50;0.50;;;21.20;59.80;;;;;;5022332;28;43985;-62
2022/06/23 03:09:00;;;;;;;0.50;0.50;;;21.20;59.90;;;;;;5022382;28;43420;-62
2022/06/23 03:11:54;;;;;;;0.60;0.60;;;21.20;59.90;;;;;;5021422;28;43650;-61
2022/06/23 03:14:39;;;;;;;0.57;0.57;;;21.20;59.80;;;;;;5017771;28;44960;-62
2022/06/23 03:17:29;;;;;;;0.60;0.60;;;21.20;59.80;;;;;;5020385;28;43544;-62
2022/06/23 03:20:13;;;;;;;0.60;0.60;;;21.20;59.80;;;;;;5011838;28;43442;-63
2022/06/23 03:23:03;;;;;;;0.98;0.70;;;21.20;59.80;;;;;;5022130;28;43519;-62
2022/06/23 03:25:39;;;;;;;0.60;0.52;;;21.10;59.80;;;;;;5017009;28;43798;-62
2022/06/23 03:28:21;;;;;;;0.52;0.52;;;21.20;59.80;;;;;;5021920;28;43564;-62
2022/06/23 03:31:02;;;;;;;0.50;0.50;;;21.10;59.80;;;;;;4989622;28;43512;-62
2022/06/23 03:33:55;;;;;;;0.55;0.55;;;21.10;59.80;;;;;;5011094;28;43449;-62
2022/06/23 03:36:32;;;;;;;0.60;0.50;;;21.10;59.80;;;;;;5014115;28;45010;-62
2022/06/23 03:42:39;;;;;;;0.60;0.60;;;21.10;59.80;;;;;;5021943;28;43450;-62
2022/06/23 03:45:45;;;;;;;0.70;0.70;;;21.10;59.80;;;;;;5017378;28;43441;-62
2022/06/23 03:48:40;;;;;;;0.50;0.50;;;21.10;59.90;;;;;;5021675;28;44091;-62
2022/06/23 03:51:18;;;;;;;0.70;0.50;;;21.10;59.90;;;;;;5014390;28;44035;-62
2022/06/23 03:53:55;;;;;;;0.65;0.65;;;21.10;59.90;;;;;;5014536;28;43551;-62
2022/06/23 03:56:32;;;;;;;0.70;0.70;;;21.10;59.90;;;;;;5021156;28;43457;-61
2022/06/23 03:59:02;;;;;;;0.50;0.50;;;21.00;59.90;;;;;;5011390;28;43799;-62
2022/06/23 04:01:42;;;;;;;0.63;0.60;;;21.00;59.90;;;;;;5021894;28;43923;-62
2022/06/23 04:04:13;;;;;;;0.50;0.50;;;21.00;59.90;;;;;;5014744;28;43519;-62
2022/06/23 04:06:42;;;;;;;1.00;0.68;;;21.00;59.90;;;;;;5025066;28;43600;-62
2022/06/23 04:09:21;;;;;;;0.75;0.75;;;21.00;60.50;;;;;;5025075;28;43796;-62
2022/06/23 04:12:06;;;;;;;0.47;0.47;;;21.00;59.80;;;;;;5019403;28;43443;-62
2022/06/23 04:14:52;;;;;;;0.80;0.80;;;21.00;59.90;;;;;;5022628;28;43543;-62
2022/06/23 04:17:32;;;;;;;0.60;0.60;;;21.00;59.90;;;;;;5025097;28;43507;-62
2022/06/23 04:20:38;;;;;;;0.93;0.70;;;21.00;59.90;;;;;;5023918;28;43957;-62
2022/06/23 04:23:20;;;;;;;0.50;0.50;;;21.00;59.90;;;;;;5015681;28;43520;-62
2022/06/23 04:26:11;;;;;;;0.50;0.50;;;21.00;59.90;;;;;;5024030;28;43395;-62
2022/06/23 04:28:49;;;;;;;0.70;0.70;;;21.00;59.90;;;;;;5020229;28;43524;-62
2022/06/23 04:31:40;;;;;;;0.50;0.50;;;21.00;60.00;;;;;;5023536;28;44130;-62
2022/06/23 04:34:20;;;;;;;0.60;0.60;;;21.00;59.90;;;;;;5024122;28;43491;-62
2022/06/23 04:36:48;;;;;;;0.70;0.70;;;21.00;59.90;;;;;;5024437;28;43497;-62
2022/06/23 04:39:41;;;;;;;0.68;0.40;;;21.00;59.90;;;;;;5024588;28;43614;-62
2022/06/23 04:42:25;;;;;;;0.70;0.70;;;20.90;60.00;;;;;;5021421;28;44019;-62
2022/06/23 04:45:16;;;;;;;0.57;0.57;;;20.90;60.20;;;;;;5017410;28;43969;-62
2022/06/23 04:47:45;;;;;;;0.60;0.60;;;20.90;60.00;;;;;;5023322;28;43448;-62
2022/06/23 04:50:31;;;;;;;1.00;0.50;;;20.90;60.00;;;;;;5024230;28;43595;-62
2022/06/23 04:53:00;;;;;;;1.02;0.55;;;20.90;60.00;;;;;;5024970;28;44214;-62
2022/06/23 04:55:31;;;;;;;0.60;0.60;;;20.90;60.00;;;;;;5023310;28;43448;-63
2022/06/23 04:58:31;;;;;;;0.50;0.50;;;20.90;60.00;;;;;;5023805;28;43980;-62
2022/06/23 05:00:58;;;;;;;0.50;0.50;;;20.90;60.00;;;;;;5011201;28;43492;-62
2022/06/23 05:03:47;;;;;;;0.60;0.60;;;20.90;60.10;;;;;;5022766;28;44171;-62
2022/06/23 05:06:34;;;;;;;0.50;0.50;;;20.90;60.00;;;;;;5023715;28;43878;-62
2022/06/23 05:09:10;;;;;;;0.57;0.57;;;20.90;60.10;;;;;;5024025;28;43432;-62
2022/06/23 05:11:47;;;;;;;0.60;0.60;;;20.80;60.10;;;;;;5011508;28;43548;-62
2022/06/23 05:14:24;;;;;;;0.45;0.45;;;20.80;60.10;;;;;;5023330;28;43811;-62
2022/06/23 05:17:04;;;;;;;0.40;0.40;;;20.80;60.20;;;;;;5015673;28;43477;-62
2022/06/23 05:19:37;;;;;;;0.60;0.55;;;20.80;60.30;;;;;;5023431;28;43448;-62
2022/06/23 05:22:19;;;;;;;0.30;0.30;;;20.80;60.30;;;;;;5023728;28;43814;-62
2022/06/23 05:24:48;;;;;;;0.70;0.68;;;20.80;60.30;;;;;;5019985;28;43819;-62
2022/06/23 05:27:24;;;;;;;0.60;0.60;;;20.80;60.30;;;;;;5023739;28;43630;-62
2022/06/23 05:29:55;;;;;;;0.40;0.40;;;20.80;60.40;;;;;;5024800;28;43458;-62
2022/06/23 05:32:50;;;;;;;0.70;0.70;;;20.80;60.30;;;;;;5023500;28;43490;-63
2022/06/23 05:35:22;;;;;;;0.40;0.40;;;20.80;60.40;;;;;;5016210;28;43856;-62
2022/06/23 05:37:55;;;;;;;0.60;0.60;;;20.80;60.40;;;;;;5023553;28;43492;-62
2022/06/23 05:40:30;;;;;;;0.60;0.60;;;20.80;60.50;;;;;;5024201;28;43514;-63
2022/06/23 05:43:01;;;;;;;0.52;0.50;;;20.80;60.40;;;;;;5024166;28;43586;-62
2022/06/23 05:45:40;;;;;;;0.70;0.68;;;20.80;60.40;;;;;;5023244;28;43798;-62
2022/06/23 05:48:13;;;;;;;0.40;0.40;;;20.80;60.30;;;;;;5023421;28;43496;-62
2022/06/23 05:50:52;;;;;;;0.70;0.70;;;20.80;60.30;;;;;;5023693;28;43482;-62
2022/06/23 05:53:25;;;;;;;0.40;0.40;;;20.80;60.30;;;;;;5021754;28;43492;-62
2022/06/23 05:56:35;;;;;;;0.60;0.60;;;20.80;60.20;;;;;;5023271;28;43813;-63
2022/06/23 05:59:09;;;;;;;0.50;0.50;;;20.80;60.30;;;;;;5013161;28;43442;-62
2022/06/23 06:01:42;;;;;;;1.30;0.70;;;20.80;60.30;;;;;;5022512;28;44076;-62
2022/06/23 06:04:31;;;;;;;0.60;0.60;;;20.80;60.30;;;;;;5022330;28;43499;-61
2022/06/23 06:06:59;;;;;;;0.60;0.60;;;20.80;60.30;;;;;;5012344;28;44060;-62
2022/06/23 06:09:35;;;;;;;0.85;0.60;;;20.80;60.40;;;;;;5022923;28;44052;-62
2022/06/23 06:12:08;;;;;;;0.60;0.60;;;20.80;60.30;;;;;;5021845;28;43681;-62
2022/06/23 06:14:42;;;;;;;0.55;0.55;;;20.80;60.40;;;;;;5022074;28;43595;-62
2022/06/23 06:17:18;;;;;;;0.73;0.73;;;20.80;60.30;;;;;;5022566;28;43811;-62
2022/06/23 06:19:47;;;;;;;0.70;0.70;;;20.80;60.40;;;;;;5019064;28;43527;-62
2022/06/23 06:22:45;;;;;;;0.80;0.80;;;20.80;60.40;;;;;;5022644;28;43404;-62
2022/06/23 06:25:25;;;;;;;0.60;0.60;;;20.80;60.30;;;;;;5012954;28;43522;-62
2022/06/23 06:27:54;;;;;;;0.70;0.70;;;20.80;60.30;;;;;;5020589;28;43794;-62
2022/06/23 06:30:31;;;;;;;0.60;0.60;;;20.80;60.30;;;;;;5022616;28;43479;-62
2022/06/23 06:32:59;;;;;;;0.70;0.70;;;20.80;60.30;;;;;;5022715;28;43411;-62
2022/06/23 06:35:43;;;;;;;0.57;0.57;;;20.80;60.30;;;;;;5022704;28;43517;-62
2022/06/23 06:38:17;;;;;;;0.73;0.73;;;20.80;60.30;;;;;;5022787;28;43803;-62
2022/06/23 06:40:48;;;;;;;0.70;0.70;;;20.80;60.30;;;;;;5016737;28;43426;-62
2022/06/23 06:43:22;;;;;;;0.77;0.77;;;20.80;60.40;;;;;;5022389;28;43425;-63
2022/06/23 06:45:51;;;;;;;0.70;0.70;;;20.80;60.40;;;;;;5009300;28;43544;-62
2022/06/23 06:48:29;;;;;;;0.88;0.88;;;20.80;60.40;;;;;;5022560;28;45155;-62
2022/06/23 06:51:06;;;;;;;0.60;0.60;;;20.80;60.40;;;;;;5022254;28;43516;-61
2022/06/23 06:53:38;;;;;;;0.80;0.57;;;20.80;60.30;;;;;;5022427;28;43574;-62
2022/06/23 06:56:15;;;;;;;0.90;0.90;;;20.80;60.30;;;;;;5022855;28;43389;-62
2022/06/23 06:58:52;;;;;;;1.15;1.10;;;20.80;60.30;;;;;;5021743;28;43807;-62
2022/06/23 07:01:25;;;;;;;1.80;0.90;;;20.80;60.50;;;;;;5021534;28;43998;-62
2022/06/23 07:03:55;;;;;;;0.88;0.88;;;20.80;60.50;;;;;;5022508;28;43455;-62
2022/06/23 07:06:43;;;;;;;0.70;0.70;;;20.80;60.60;;;;;;5022434;28;43393;-62
2022/06/23 07:09:33;;;;;;;1.00;1.00;;;20.80;60.60;;;;;;5021955;28;43786;-62
2022/06/23 07:12:21;;;;;;;0.60;0.60;;;20.80;60.80;;;;;;5021095;28;43473;-62
2022/06/23 07:15:26;;;;;;;1.70;1.10;;;20.80;60.80;;;;;;5018707;28;43431;-62
2022/06/23 07:18:30;;;;;;;1.92;1.02;;;20.90;61.10;;;;;;5016473;28;43503;-62
2022/06/23 07:21:07;;;;;;;1.05;1.02;;;20.80;61.30;;;;;;5018886;28;44038;-61
2022/06/23 07:23:45;;;;;;;1.08;1.00;;;20.80;61.30;;;;;;5021832;28;43997;-63
2022/06/23 07:26:30;;;;;;;1.17;1.17;;;20.80;61.40;;;;;;5014599;28;43476;-62
2022/06/23 07:29:21;;;;;;;1.38;1.27;;;20.80;61.40;;;;;;5022456;28;43436;-62
2022/06/23 07:32:13;;;;;;;1.42;1.25;;;20.80;61.40;;;;;;5021085;28;44049;-62
2022/06/23 07:34:55;;;;;;;1.30;1.20;;;20.90;61.60;;;;;;5021016;28;44333;-62
2022/06/23 07:37:53;;;;;;;1.20;1.10;;;20.90;61.80;;;;;;5023584;28;43463;-62
2022/06/23 07:40:24;;;;;;;1.30;1.20;;;20.90;61.40;;;;;;5022242;28;43601;-62
2022/06/23 07:43:11;;;;;;;1.60;1.50;;;20.90;61.50;;;;;;5025328;28;44135;-62
2022/06/23 07:45:47;;;;;;;1.45;1.33;;;20.90;61.50;;;;;;5016560;28;44067;-63
2022/06/23 07:48:15;;;;;;;1.42;1.30;;;20.90;61.70;;;;;;5025238;28;43478;-63
2022/06/23 07:50:42;;;;;;;2.00;1.90;;;20.90;61.60;;;;;;5025506;28;43459;-63
2022/06/23 07:53:28;;;;;;;2.50;2.30;;;20.90;61.90;;;;;;5024606;28;43995;-63
2022/06/23 07:55:56;;;;;;;3.35;3.05;;;20.90;62.40;;;;;;5024221;28;44031;-63
2022/06/23 07:58:30;;;;;;;6.70;4.32;;;20.90;64.40;;;;;;5022468;28;43435;-62
2022/06/23 08:01:27;;;;;;;4.30;3.90;;;20.90;65.20;;;;;;5024376;28;43560;-62
2022/06/23 08:04:05;;;;;;;4.20;3.80;;;21.00;65.20;;;;;;5019612;28;44802;-63
2022/06/23 08:06:34;;;;;;;5.75;3.80;;;21.00;65.20;;;;;;5024916;28;43794;-63
2022/06/23 08:09:21;;;;;;;4.07;3.70;;;21.10;65.70;;;;;;5025775;28;43531;-63
2022/06/23 08:14:43;;;;;;;4.57;4.10;;;21.10;65.40;;;;;;5023915;28;44037;-63
2022/06/23 08:17:16;;;;;;;4.07;3.42;;;21.10;65.80;;;;;;5025463;28;44245;-62
2022/06/23 08:19:54;;;;;;;3.72;3.30;;;21.10;65.30;;;;;;5024225;28;43487;-63
2022/06/23 08:22:27;;;;;;;3.83;3.20;;;21.20;64.50;;;;;;5024693;28;43625;-63
2022/06/23 08:25:05;;;;;;;4.63;3.50;;;21.20;65.30;;;;;;5024584;28;45040;-63
2022/06/23 08:27:52;;;;;;;3.85;3.30;;;21.30;64.90;;;;;;5020706;28;43540;-63
2022/06/23 08:30:22;;;;;;;4.65;3.58;;;21.20;64.70;;;;;;5014326;28;43472;-63
2022/06/23 08:32:52;;;;;;;3.22;3.03;;;21.30;64.40;;;;;;5024232;28;43695;-63
2022/06/23 08:35:31;;;;;;;3.60;3.30;;;21.30;64.50;;;;;;5021024;28;45313;-62
2022/06/23 08:37:59;;;;;;;5.53;3.42;;;21.30;64.70;;;;;;5024149;28;43678;-63
2022/06/23 08:40:47;;;;;;;4.00;3.60;;;21.30;64.60;;;;;;5024684;28;43436;-64
2022/06/23 08:43:44;;;;;;;3.80;3.50;;;21.30;65.10;;;;;;5020100;28;43609;-63
2022/06/23 08:46:36;;;;;;;3.90;3.55;;;21.30;64.50;;;;;;4944399;28;43811;-64
2022/06/23 08:49:28;;;;;;;6.28;4.78;;;21.30;64.70;;;;;;5023907;28;43499;-64
2022/06/23 08:52:10;;;;;;;5.65;5.00;;;21.30;65.90;;;;;;5023447;28;43507;-63
2022/06/23 08:55:01;;;;;;;4.88;4.22;;;21.30;66.00;;;;;;5023861;28;43448;-63
2022/06/23 08:57:33;;;;;;;5.28;4.47;;;21.40;65.70;;;;;;5020265;28;43839;-63
2022/06/23 09:00:24;;;;;;;5.45;4.93;;;21.50;65.90;;;;;;5024275;28;43513;-62
2022/06/23 09:03:16;;;;;;;4.50;3.90;;;21.50;65.90;;;;;;5021218;28;43515;-63
2022/06/23 09:06:05;;;;;;;4.32;3.92;;;21.50;65.50;;;;;;5022132;28;43504;-63
2022/06/23 09:09:03;;;;;;;4.35;3.90;;;21.60;65.40;;;;;;5021025;28;44097;-63
2022/06/23 09:11:41;;;;;;;4.03;3.70;;;21.60;65.30;;;;;;5021679;28;43975;-63
2022/06/23 09:14:20;;;;;;;3.95;3.58;;;21.60;65.00;;;;;;5021638;28;43560;-64
2022/06/23 09:17:23;;;;;;;3.85;3.17;;;21.70;65.00;;;;;;5006263;28;43635;-64
2022/06/23 09:20:19;;;;;;;3.70;3.40;;;21.70;65.00;;;;;;5020931;28;44214;-64
2022/06/23 09:23:01;;;;;;;4.20;3.78;;;21.70;65.10;;;;;;5019821;28;43607;-63
2022/06/23 09:25:50;;;;;;;3.75;3.45;;;21.80;65.20;;;;;;5019578;28;43544;-63
2022/06/23 09:28:23;;;;;;;4.35;3.50;;;21.80;64.90;;;;;;5021354;28;43668;-63
2022/06/23 09:31:02;;;;;;;3.90;3.23;;;21.70;65.00;;;;;;5021116;28;45217;-63
2022/06/23 09:34:28;;;;;;;4.95;3.80;;;21.80;64.90;;;;;;5020480;28;43580;-63
2022/06/23 09:37:22;;;;;;;3.58;3.28;;;21.90;65.10;;;;;;4946528;28;43581;-63
2022/06/23 09:40:27;;;;;;;4.68;3.75;;;21.80;65.30;;;;;;4945386;28;43586;-64
2022/06/23 09:43:03;;;;;;;4.07;3.20;;;21.90;65.50;;;;;;5020444;28;44067;-63
2022/06/23 09:45:58;;;;;;;4.82;3.60;;;21.90;64.90;;;;;;5008567;28;43570;-63
2022/06/23 09:48:39;;;;;;;4.45;3.95;;;21.90;64.90;;;;;;5021225;28;43507;-64
2022/06/23 09:51:12;;;;;;;4.88;3.38;;;21.90;64.60;;;;;;5020112;28;43472;-64
2022/06/23 09:54:05;;;;;;;4.57;3.50;;;22.00;64.70;;;;;;5020417;28;44999;-63
2022/06/23 09:57:00;;;;;;;4.55;3.38;;;22.00;65.00;;;;;;5019861;28;43480;-63
2022/06/23 09:59:35;;;;;;;4.20;3.80;;;22.00;65.00;;;;;;5017823;28;43495;-64
2022/06/23 10:02:34;;;;;;;4.30;3.17;;;22.10;65.00;;;;;;5019720;28;43590;-64
2022/06/23 10:05:25;;;;;;;3.38;3.00;;;22.10;64.70;;;;;;5020054;28;44124;-64
2022/06/23 10:08:21;;;;;;;5.15;3.30;;;22.10;64.50;;;;;;5020597;28;43442;-63
2022/06/23 10:11:03;;;;;;;3.90;3.58;;;22.10;64.20;;;;;;5020679;28;43467;-64
2022/06/23 10:13:43;;;;;;;3.38;3.08;;;22.20;64.80;;;;;;5019195;28;43522;-64
2022/06/23 10:16:48;;;;;;;3.22;2.95;;;22.20;64.60;;;;;;5020617;28;44738;-64
2022/06/23 10:19:42;;;;;;;5.80;3.50;;;22.20;64.30;;;;;;5018088;28;43490;-64
2022/06/23 10:22:26;;;;;;;4.35;3.00;;;22.20;63.90;;;;;;5019911;28;44072;-64
2022/06/23 10:25:12;;;;;;;3.67;3.00;;;22.20;63.60;;;;;;5008430;28;43734;-64
2022/06/23 10:28:17;;;;;;;3.70;2.80;;;22.30;63.10;;;;;;5021336;28;45018;-64
2022/06/23 10:31:12;;;;;;;6.13;3.30;;;22.40;63.40;;;;;;5005159;28;43496;-64
2022/06/23 10:34:20;;;;;;;6.00;3.00;;;22.40;63.50;;;;;;5021760;28;43404;-63
2022/06/23 10:37:05;;;;;;;3.30;2.72;;;22.50;63.00;;;;;;5002308;28;43594;-64
2022/06/23 10:40:09;;;;;;;6.07;2.90;;;22.50;62.90;;;;;;5021927;28;44956;-64
2022/06/23 10:43:08;;;;;;;2.92;2.72;;;22.60;62.70;;;;;;5016125;28;44016;-64
2022/06/23 10:45:43;;;;;;;2.60;2.38;;;22.60;62.30;;;;;;5021720;28;43444;-64
2022/06/23 10:48:37;;;;;;;2.83;2.55;;;22.60;62.20;;;;;;5022587;28;43587;-64
2022/06/23 10:51:28;;;;;;;3.60;2.63;;;22.60;62.00;;;;;;4983185;28;44704;-64
2022/06/23 10:54:29;;;;;;;3.00;2.40;;;22.70;62.10;;;;;;5021994;28;43460;-64
2022/06/23 10:57:34;;;;;;;2.95;2.55;;;22.70;62.00;;;;;;5020469;28;43448;-64
2022/06/23 11:00:07;;;;;;;2.72;2.53;;;22.80;61.60;;;;;;5014367;28;44984;-64
2022/06/23 11:02:52;;;;;;;2.88;2.40;;;22.80;61.80;;;;;;5041278;28;44649;-64
2022/06/23 11:05:40;;;;;;;2.50;2.30;;;22.80;61.80;;;;;;5019533;28;43526;-64
2022/06/23 11:08:20;;;;;;;3.03;2.40;;;22.90;61.70;;;;;;5019048;28;43477;-64
2022/06/23 11:11:09;;;;;;;2.67;2.47;;;22.90;61.70;;;;;;5005977;28;43512;-63
2022/06/23 11:13:51;;;;;;;3.67;2.40;;;22.90;61.60;;;;;;5022854;28;45043;-63
2022/06/23 11:16:48;;;;;;;4.32;2.40;;;22.90;61.70;;;;;;5023250;28;43703;-63
2022/06/23 11:19:16;;;;;;;3.20;2.40;;;23.00;61.90;;;;;;5024126;28;43555;-63
2022/06/23 11:22:14;;;;;;;3.40;2.70;;;23.00;61.60;;;;;;5022979;28;43659;-63
2022/06/23 11:24:54;;;;;;;3.80;2.50;;;23.10;61.70;;;;;;5020733;28;44290;-63
2022/06/23 11:27:30;;;;;;;3.47;2.45;;;23.10;61.90;;;;;;5022783;28;43615;-63
2022/06/23 11:30:07;;;;;;;4.35;2.50;;;23.10;62.00;;;;;;5023504;28;43521;-63
2022/06/23 11:32:40;;;;;;;2.70;2.50;;;23.10;61.70;;;;;;5012264;28;43470;-63
2022/06/23 11:35:28;;;;;;;3.20;2.75;;;23.20;61.90;;;;;;5020167;28;43887;-63
2022/06/23 11:38:23;;;;;;;3.65;2.50;;;23.20;61.90;;;;;;5020738;28;43462;-63
2022/06/23 11:41:03;;;;;;;3.08;2.60;;;23.20;61.80;;;;;;5023255;28;43518;-63
2022/06/23 11:43:45;;;;;;;2.72;2.50;;;23.30;62.00;;;;;;5021495;28;43559;-63
2022/06/23 11:46:35;;;;;;;4.57;2.60;;;23.30;61.80;;;;;;5022623;28;44679;-63
2022/06/23 11:49:23;;;;;;;2.67;2.40;;;23.30;61.60;;;;;;5020514;28;43682;-63
2022/06/23 11:52:24;;;;;;;2.50;2.30;;;23.30;61.60;;;;;;5023145;28;43501;-63
2022/06/23 11:55:11;;;;;;;2.70;2.33;;;23.40;61.60;;;;;;5022483;28;43441;-63
2022/06/23 11:58:05;;;;;;;2.60;2.40;;;23.40;61.80;;;;;;5021506;28;43796;-64
2022/06/23 12:00:51;;;;;;;2.47;2.28;;;23.50;61.60;;;;;;5024740;28;43666;-63
2022/06/23 12:03:37;;;;;;;2.78;2.58;;;23.50;61.70;;;;;;5024705;28;43480;-64
2022/06/23 12:06:27;;;;;;;3.08;2.50;;;23.50;61.50;;;;;;5024943;28;43464;-63
2022/06/23 12:09:20;;;;;;;4.20;2.47;;;23.60;61.60;;;;;;5025127;28;43656;-64
2022/06/23 12:11:54;;;;;;;4.72;2.30;;;23.60;61.70;;;;;;4974669;28;43552;-63
2022/06/23 12:14:23;;;;;;;2.58;2.20;;;23.70;61.60;;;;;;5021388;28;43499;-63
2022/06/23 12:17:25;;;;;;;3.22;2.47;;;23.70;61.90;;;;;;5021297;28;43553;-63
2022/06/23 12:19:58;;;;;;;2.67;2.30;;;23.80;62.10;;;;;;5020718;28;45285;-63
2022/06/23 12:22:37;;;;;;;2.92;2.30;;;23.80;62.30;;;;;;5014863;28;44170;-63
2022/06/23 12:25:17;;;;;;;2.78;2.40;;;23.80;62.20;;;;;;5017645;28;43587;-63
2022/06/23 12:27:57;;;;;;;2.80;2.55;;;23.90;62.60;;;;;;5021061;28;44003;-63
2022/06/23 12:30:27;;;;;;;3.45;2.15;;;23.90;62.30;;;;;;5022259;28;44050;-63
2022/06/23 12:33:30;;;;;;;3.78;2.90;;;23.90;61.60;;;;;;5021532;28;43464;-63
2022/06/23 12:36:08;;;;;;;2.40;2.20;;;24.00;61.50;;;;;;4935230;28;43486;-64
2022/06/23 12:38:44;;;;;;;2.28;2.10;;;24.00;61.60;;;;;;5023745;28;43383;-63
2022/06/23 12:41:17;;;;;;;4.15;2.20;;;24.00;61.40;;;;;;5022317;28;44083;-63
2022/06/23 12:43:52;;;;;;;3.63;2.40;;;24.10;61.50;;;;;;5021864;28;44049;-64
2022/06/23 12:46:31;;;;;;;2.58;2.38;;;24.10;61.20;;;;;;5023035;28;43514;-64
2022/06/23 12:49:22;;;;;;;4.63;2.33;;;24.10;61.00;;;;;;5022255;28;43600;-64
2022/06/23 12:52:16;;;;;;;3.17;2.40;;;24.10;61.00;;;;;;5023307;28;43822;-64
2022/06/23 12:54:55;;;;;;;3.67;2.30;;;24.10;60.50;;;;;;5022813;28;43494;-63
2022/06/23 12:57:28;;;;;;;3.15;2.50;;;24.20;60.30;;;;;;5022424;28;43563;-64
2022/06/23 13:00:16;;;;;;;3.38;2.05;;;24.20;60.40;;;;;;4144384;28;10001120;-63
2022/06/23 13:03:08;;;;;;;2.40;2.20;;;24.30;60.70;;;;;;5022834;28;43499;-63
2022/06/23 13:05:47;;;;;;;2.47;2.28;;;24.40;60.20;;;;;;5153571;22;43658;-64
2022/06/23 13:08:24;;;;;;;3.60;2.30;;;24.40;60.40;;;;;;4962155;28;44812;-65
2022/06/23 13:11:12;;;;;;;2.58;2.30;;;24.40;60.30;;;;;;4963503;28;43624;-64
2022/06/23 13:13:43;;;;;;;2.92;2.15;;;24.40;60.50;;;;;;4089796;28;10000619;-63
2022/06/23 13:16:27;;;;;;;2.45;2.25;;;24.50;60.80;;;;;;4963847;28;43792;-63
2022/06/23 13:19:22;;;;;;;3.15;2.15;;;24.50;60.80;;;;;;4964280;28;43501;-63
2022/06/23 13:21:50;;;;;;;2.95;2.20;;;24.50;60.90;;;;;;4605954;23;44018;-65
2022/06/23 13:24:21;;;;;;;3.33;2.40;;;24.50;60.70;;;;;;4117982;28;10000511;-65
2022/06/23 13:30:13;;;;;;;1.92;1.83;;;24.70;60.10;;;;;;5627248;23;43591;-49
2022/06/23 13:32:59;;;;;;;3.15;2.25;;;24.70;60.50;;;;;;4819221;23;43991;-52
2022/06/23 13:35:46;;;;;;;2.40;2.20;;;24.70;60.40;;;;;;4929986;28;44063;-54
